sensor_id;sensor_type;location;lat;lon;timestamp;P1;durP1;ratioP1;P2;durP2;ratioP2
7076;SDS011;3579;48.956;9.154;2024-03-23T00:51:25;3.30;;;2.50;;
7076;SDS011;3579;48.956;9.154;2024-03-23T00:53:52;2.77;;;2.20;;
7076;SDS011;3579;48.956;9.154;2024-03-23T00:56:18;3.30;;;2.53;;
7076;SDS011;3579;48.956;9.154;2024-03-23T00:58:44;3.33;;;2.67;;
7076;SDS011;3579;48.956;9.154;2024-03-23T01:01:10;3.33;;;2.40;;
7076;SDS011;3579;48.956;9.154;2024-03-23T01:03:36;3.13;;;2.43;;
7076;SDS011;3579;48.956;9.154;2024-03-23T01:06:02;3.33;;;2.70;;
7076;SDS011;3579;48.956;9.154;2024-03-23T01:08:29;3.87;;;2.30;;
7076;SDS011;3579;48.956;9.154;2024-03-23T01:10:59;3.03;;;2.57;;
7076;SDS011;3579;48.956;9.154;2024-03-23T01:13:26;3.50;;;2.33;;
7076;SDS011;3579;48.956;9.154;2024-03-23T01:15:53;2.93;;;2.50;;
7076;SDS011;3579;48.956;9.154;2024-03-23T01:18:20;3.17;;;2.37;;
7076;SDS011;3579;48.956;9.154;2024-03-23T01:20:47;2.80;;;2.40;;
7076;SDS011;3579;48.956;9.154;2024-03-23T01:23:14;2.83;;;2.53;;
7076;SDS011;3579;48.956;9.154;2024-03-23T01:25:40;2.60;;;2.40;;
7076;SDS011;3579;48.956;9.154;2024-03-23T01:28:07;2.57;;;2.17;;
7076;SDS011;3579;48.956;9.154;2024-03-23T01:30:36;3.07;;;2.60;;
7076;SDS011;3579;48.956;9.154;2024-03-23T01:33:02;2.87;;;2.30;;
7076;SDS011;3579;48.956;9.154;2024-03-23T01:35:28;3.13;;;2.50;;
7076;SDS011;3579;48.956;9.154;2024-03-23T01:37:54;3.17;;;2.43;;
7076;SDS011;3579;48.956;9.154;2024-03-23T01:40:20;2.73;;;2.30;;
7076;SDS011;3579;48.956;9.154;2024-03-23T01:42:55;2.40;;;2.20;;
7076;SDS011;3579;48.956;9.154;2024-03-23T01:45:22;2.80;;;2.40;;
7076;SDS011;3579;48.956;9.154;2024-03-23T01:47:49;2.80;;;2.37;;
7076;SDS011;3579;48.956;9.154;2024-03-23T01:50:16;2.73;;;2.40;;
7076;SDS011;3579;48.956;9.154;2024-03-23T01:52:42;3.20;;;2.50;;
7076;SDS011;3579;48.956;9.154;2024-03-23T01:55:09;3.03;;;2.40;;
7076;SDS011;3579;48.956;9.154;2024-03-23T01:57:35;2.70;;;2.37;;
7076;SDS011;3579;48.956;9.154;2024-03-23T02:00:01;3.17;;;2.47;;
7076;SDS011;3579;48.956;9.154;2024-03-23T02:02:28;2.60;;;2.17;;
7076;SDS011;3579;48.956;9.154;2024-03-23T02:04:54;2.50;;;2.20;;
7076;SDS011;3579;48.956;9.154;2024-03-23T02:07:20;2.63;;;2.20;;
7076;SDS011;3579;48.956;9.154;2024-03-23T02:09:46;2.63;;;2.23;;
7076;SDS011;3579;48.956;9.154;2024-03-23T02:12:12;2.93;;;2.40;;
7076;SDS011;3579;48.956;9.154;2024-03-23T02:14:38;3.00;;;2.60;;
7076;SDS011;3579;48.956;9.154;2024-03-23T02:17:04;2.67;;;2.30;;
7076;SDS011;3579;48.956;9.154;2024-03-23T02:19:30;3.03;;;2.20;;
7076;SDS011;3579;48.956;9.154;2024-03-23T02:21:56;3.13;;;2.47;;
7076;SDS011;3579;48.956;9.154;2024-03-23T02:24:22;2.97;;;2.30;;
7076;SDS011;3579;48.956;9.154;2024-03-23T02:26:48;3.27;;;2.50;;
7076;SDS011;3579;48.956;9.154;2024-03-23T02:29:14;3.83;;;2.60;;
7076;SDS011;3579;48.956;9.154;2024-03-23T02:31:40;2.93;;;2.40;;
7076;SDS011;3579;48.956;9.154;2024-03-23T02:34:06;3.00;;;2.43;;
7076;SDS011;3579;48.956;9.154;2024-03-23T02:36:32;2.90;;;2.20;;
7076;SDS011;3579;48.956;9.154;2024-03-23T02:38:58;3.67;;;2.40;;
7076;SDS011;3579;48.956;9.154;2024-03-23T02:41:24;3.90;;;2.47;;
7076;SDS011;3579;48.956;9.154;2024-03-23T02:43:50;3.57;;;2.80;;
7076;SDS011;3579;48.956;9.154;2024-03-23T02:46:16;3.30;;;2.70;;
7076;SDS011;3579;48.956;9.154;2024-03-23T02:48:42;3.53;;;2.50;;
7076;SDS011;3579;48.956;9.154;2024-03-23T02:51:09;3.50;;;2.53;;
7076;SDS011;3579;48.956;9.154;2024-03-23T02:53:35;2.50;;;2.20;;
7076;SDS011;3579;48.956;9.154;2024-03-23T02:56:01;3.00;;;2.57;;
7076;SDS011;3579;48.956;9.154;2024-03-23T02:58:28;2.57;;;2.20;;
7076;SDS011;3579;48.956;9.154;2024-03-23T03:00:55;2.80;;;2.47;;
7076;SDS011;3579;48.956;9.154;2024-03-23T03:03:21;2.30;;;2.10;;
7076;SDS011;3579;48.956;9.154;2024-03-23T03:05:47;2.73;;;2.40;;
7076;SDS011;3579;48.956;9.154;2024-03-23T03:08:13;2.70;;;2.30;;
7076;SDS011;3579;48.956;9.154;2024-03-23T03:10:39;2.87;;;2.57;;
7076;SDS011;3579;48.956;9.154;2024-03-23T03:13:04;3.03;;;2.60;;
7076;SDS011;3579;48.956;9.154;2024-03-23T03:15:30;2.83;;;2.40;;
7076;SDS011;3579;48.956;9.154;2024-03-23T03:17:56;3.10;;;2.40;;
7076;SDS011;3579;48.956;9.154;2024-03-23T03:20:22;3.23;;;2.30;;
7076;SDS011;3579;48.956;9.154;2024-03-23T03:22:49;2.50;;;2.17;;
7076;SDS011;3579;48.956;9.154;2024-03-23T03:25:15;3.10;;;2.63;;
7076;SDS011;3579;48.956;9.154;2024-03-23T03:27:41;3.40;;;2.17;;
7076;SDS011;3579;48.956;9.154;2024-03-23T03:30:07;3.03;;;2.20;;
7076;SDS011;3579;48.956;9.154;2024-03-23T03:32:34;2.60;;;2.13;;
7076;SDS011;3579;48.956;9.154;2024-03-23T03:35:00;2.67;;;2.03;;
7076;SDS011;3579;48.956;9.154;2024-03-23T03:37:26;2.27;;;2.07;;
7076;SDS011;3579;48.956;9.154;2024-03-23T03:39:52;2.47;;;2.07;;
7076;SDS011;3579;48.956;9.154;2024-03-23T03:42:18;2.70;;;2.30;;
7076;SDS011;3579;48.956;9.154;2024-03-23T03:44:44;2.47;;;2.27;;
7076;SDS011;3579;48.956;9.154;2024-03-23T03:47:10;2.37;;;2.00;;
7076;SDS011;3579;48.956;9.154;2024-03-23T03:49:36;2.80;;;2.23;;
7076;SDS011;3579;48.956;9.154;2024-03-23T03:52:02;2.47;;;2.00;;
7076;SDS011;3579;48.956;9.154;2024-03-23T03:54:28;2.60;;;2.30;;
7076;SDS011;3579;48.956;9.154;2024-03-23T03:56:54;2.97;;;2.40;;
7076;SDS011;3579;48.956;9.154;2024-03-23T03:59:20;2.60;;;2.30;;
7076;SDS011;3579;48.956;9.154;2024-03-23T04:01:46;2.17;;;1.87;;
7076;SDS011;3579;48.956;9.154;2024-03-23T04:04:12;2.93;;;2.40;;
7076;SDS011;3579;48.956;9.154;2024-03-23T04:06:39;2.83;;;2.33;;
7076;SDS011;3579;48.956;9.154;2024-03-23T04:09:05;2.60;;;2.40;;
7076;SDS011;3579;48.956;9.154;2024-03-23T04:11:32;3.33;;;2.20;;
7076;SDS011;3579;48.956;9.154;2024-03-23T04:13:58;2.30;;;2.10;;
7076;SDS011;3579;48.956;9.154;2024-03-23T04:16:24;2.60;;;2.20;;
7076;SDS011;3579;48.956;9.154;2024-03-23T04:18:54;2.30;;;2.07;;
7076;SDS011;3579;48.956;9.154;2024-03-23T04:21:21;2.40;;;2.20;;
7076;SDS011;3579;48.956;9.154;2024-03-23T04:23:47;2.43;;;2.20;;
7076;SDS011;3579;48.956;9.154;2024-03-23T04:26:14;2.47;;;2.20;;
7076;SDS011;3579;48.956;9.154;2024-03-23T04:28:40;2.43;;;2.00;;
7076;SDS011;3579;48.956;9.154;2024-03-23T04:31:06;2.50;;;2.30;;
7076;SDS011;3579;48.956;9.154;2024-03-23T04:33:32;2.73;;;2.00;;
7076;SDS011;3579;48.956;9.154;2024-03-23T04:35:58;2.80;;;2.10;;
7076;SDS011;3579;48.956;9.154;2024-03-23T04:38:24;2.50;;;2.23;;
7076;SDS011;3579;48.956;9.154;2024-03-23T04:40:57;2.53;;;2.00;;
7076;SDS011;3579;48.956;9.154;2024-03-23T04:43:25;2.63;;;2.33;;
7076;SDS011;3579;48.956;9.154;2024-03-23T04:45:52;2.80;;;2.30;;
7076;SDS011;3579;48.956;9.154;2024-03-23T04:48:21;3.00;;;2.27;;
7076;SDS011;3579;48.956;9.154;2024-03-23T04:50:54;2.60;;;2.27;;
7076;SDS011;3579;48.956;9.154;2024-03-23T04:53:23;2.40;;;2.20;;
7076;SDS011;3579;48.956;9.154;2024-03-23T04:55:56;4.00;;;2.20;;
7076;SDS011;3579;48.956;9.154;2024-03-23T04:58:22;3.03;;;2.10;;
7076;SDS011;3579;48.956;9.154;2024-03-23T05:00:54;2.83;;;2.30;;
7076;SDS011;3579;48.956;9.154;2024-03-23T05:03:21;2.50;;;2.20;;
7076;SDS011;3579;48.956;9.154;2024-03-23T05:05:47;2.23;;;2.00;;
7076;SDS011;3579;48.956;9.154;2024-03-23T05:08:14;3.07;;;2.30;;
7076;SDS011;3579;48.956;9.154;2024-03-23T05:10:41;2.77;;;2.20;;
7076;SDS011;3579;48.956;9.154;2024-03-23T05:13:08;2.50;;;2.20;;
7076;SDS011;3579;48.956;9.154;2024-03-23T05:15:34;2.60;;;2.30;;
7076;SDS011;3579;48.956;9.154;2024-03-23T05:18:01;2.47;;;2.27;;
7076;SDS011;3579;48.956;9.154;2024-03-23T05:20:27;2.83;;;2.27;;
7076;SDS011;3579;48.956;9.154;2024-03-23T05:22:54;2.43;;;2.23;;
7076;SDS011;3579;48.956;9.154;2024-03-23T05:25:20;3.40;;;2.47;;
7076;SDS011;3579;48.956;9.154;2024-03-23T05:27:46;2.40;;;2.10;;
7076;SDS011;3579;48.956;9.154;2024-03-23T05:30:12;2.40;;;1.90;;
7076;SDS011;3579;48.956;9.154;2024-03-23T05:32:39;2.33;;;2.13;;
7076;SDS011;3579;48.956;9.154;2024-03-23T05:35:09;2.53;;;1.87;;
7076;SDS011;3579;48.956;9.154;2024-03-23T05:37:35;2.87;;;2.20;;
7076;SDS011;3579;48.956;9.154;2024-03-23T05:40:01;2.57;;;2.20;;
7076;SDS011;3579;48.956;9.154;2024-03-23T05:42:29;2.30;;;2.10;;
7076;SDS011;3579;48.956;9.154;2024-03-23T05:44:55;2.17;;;1.97;;
7076;SDS011;3579;48.956;9.154;2024-03-23T05:47:21;1.90;;;1.73;;
7076;SDS011;3579;48.956;9.154;2024-03-23T05:49:47;2.20;;;1.90;;
7076;SDS011;3579;48.956;9.154;2024-03-23T05:52:13;2.10;;;1.90;;
7076;SDS011;3579;48.956;9.154;2024-03-23T05:54:39;2.77;;;2.20;;
7076;SDS011;3579;48.956;9.154;2024-03-23T05:57:08;2.33;;;2.13;;
7076;SDS011;3579;48.956;9.154;2024-03-23T05:59:35;3.03;;;2.50;;
7076;SDS011;3579;48.956;9.154;2024-03-23T06:02:01;2.10;;;1.90;;
7076;SDS011;3579;48.956;9.154;2024-03-23T06:04:27;2.77;;;2.00;;
7076;SDS011;3579;48.956;9.154;2024-03-23T06:06:52;2.40;;;2.10;;
7076;SDS011;3579;48.956;9.154;2024-03-23T06:09:18;1.77;;;1.67;;
7076;SDS011;3579;48.956;9.154;2024-03-23T06:11:45;2.60;;;1.90;;
7076;SDS011;3579;48.956;9.154;2024-03-23T06:14:11;2.23;;;2.03;;
7076;SDS011;3579;48.956;9.154;2024-03-23T06:16:37;2.07;;;1.87;;
7076;SDS011;3579;48.956;9.154;2024-03-23T06:19:03;2.20;;;2.00;;
7076;SDS011;3579;48.956;9.154;2024-03-23T06:21:32;2.47;;;2.00;;
7076;SDS011;3579;48.956;9.154;2024-03-23T06:23:58;2.57;;;2.03;;
7076;SDS011;3579;48.956;9.154;2024-03-23T06:26:24;2.30;;;2.00;;
7076;SDS011;3579;48.956;9.154;2024-03-23T06:28:51;2.53;;;2.10;;
7076;SDS011;3579;48.956;9.154;2024-03-23T06:31:17;3.07;;;1.90;;
7076;SDS011;3579;48.956;9.154;2024-03-23T06:33:43;2.03;;;1.80;;
7076;SDS011;3579;48.956;9.154;2024-03-23T06:36:09;3.47;;;1.87;;
7076;SDS011;3579;48.956;9.154;2024-03-23T06:38:36;2.20;;;2.00;;
7076;SDS011;3579;48.956;9.154;2024-03-23T06:41:03;2.10;;;1.90;;
7076;SDS011;3579;48.956;9.154;2024-03-23T06:43:30;2.03;;;1.83;;
7076;SDS011;3579;48.956;9.154;2024-03-23T06:45:56;2.10;;;1.90;;
7076;SDS011;3579;48.956;9.154;2024-03-23T06:48:22;2.73;;;1.80;;
7076;SDS011;3579;48.956;9.154;2024-03-23T06:50:48;2.33;;;2.13;;
7076;SDS011;3579;48.956;9.154;2024-03-23T06:53:14;2.00;;;1.80;;
7076;SDS011;3579;48.956;9.154;2024-03-23T06:55:41;2.30;;;1.60;;
7076;SDS011;3579;48.956;9.154;2024-03-23T06:58:07;2.37;;;1.80;;
7076;SDS011;3579;48.956;9.154;2024-03-23T07:00:33;2.37;;;1.93;;
7076;SDS011;3579;48.956;9.154;2024-03-23T07:02:59;2.10;;;1.90;;
7076;SDS011;3579;48.956;9.154;2024-03-23T07:05:27;2.73;;;1.60;;
7076;SDS011;3579;48.956;9.154;2024-03-23T07:07:53;2.00;;;1.80;;
7076;SDS011;3579;48.956;9.154;2024-03-23T07:10:19;2.47;;;1.83;;
7076;SDS011;3579;48.956;9.154;2024-03-23T07:12:45;2.00;;;1.80;;
7076;SDS011;3579;48.956;9.154;2024-03-23T07:15:11;1.87;;;1.77;;
7076;SDS011;3579;48.956;9.154;2024-03-23T07:17:37;2.37;;;1.80;;
7076;SDS011;3579;48.956;9.154;2024-03-23T07:20:03;2.00;;;1.77;;
7076;SDS011;3579;48.956;9.154;2024-03-23T07:22:32;2.03;;;1.83;;
7076;SDS011;3579;48.956;9.154;2024-03-23T07:25:01;2.07;;;1.70;;
7076;SDS011;3579;48.956;9.154;2024-03-23T07:27:28;1.90;;;1.70;;
7076;SDS011;3579;48.956;9.154;2024-03-23T07:29:54;2.80;;;1.83;;
7076;SDS011;3579;48.956;9.154;2024-03-23T07:32:20;2.33;;;1.80;;
7076;SDS011;3579;48.956;9.154;2024-03-23T07:34:46;1.73;;;1.60;;
7076;SDS011;3579;48.956;9.154;2024-03-23T07:37:12;2.00;;;1.73;;
7076;SDS011;3579;48.956;9.154;2024-03-23T07:39:39;1.70;;;1.50;;
7076;SDS011;3579;48.956;9.154;2024-03-23T07:42:06;1.80;;;1.70;;
7076;SDS011;3579;48.956;9.154;2024-03-23T07:44:32;1.87;;;1.67;;
7076;SDS011;3579;48.956;9.154;2024-03-23T07:47:01;1.90;;;1.70;;
7076;SDS011;3579;48.956;9.154;2024-03-23T07:49:27;2.20;;;1.90;;
7076;SDS011;3579;48.956;9.154;2024-03-23T07:51:53;1.87;;;1.70;;
7076;SDS011;3579;48.956;9.154;2024-03-23T07:54:19;2.30;;;2.00;;
7076;SDS011;3579;48.956;9.154;2024-03-23T07:56:45;2.00;;;1.80;;
7076;SDS011;3579;48.956;9.154;2024-03-23T07:59:11;2.13;;;1.80;;
7076;SDS011;3579;48.956;9.154;2024-03-23T08:01:37;2.60;;;1.90;;
7076;SDS011;3579;48.956;9.154;2024-03-23T08:04:03;2.30;;;1.90;;
7076;SDS011;3579;48.956;9.154;2024-03-23T08:06:29;2.20;;;1.80;;
7076;SDS011;3579;48.956;9.154;2024-03-23T08:08:55;2.20;;;1.80;;
7076;SDS011;3579;48.956;9.154;2024-03-23T08:11:29;1.90;;;1.70;;
7076;SDS011;3579;48.956;9.154;2024-03-23T08:13:56;1.90;;;1.70;;
7076;SDS011;3579;48.956;9.154;2024-03-23T08:16:23;1.80;;;1.70;;
7076;SDS011;3579;48.956;9.154;2024-03-23T08:18:52;2.10;;;1.60;;
7076;SDS011;3579;48.956;9.154;2024-03-23T08:21:18;1.83;;;1.50;;
7076;SDS011;3579;48.956;9.154;2024-03-23T08:23:44;1.93;;;1.70;;
7076;SDS011;3579;48.956;9.154;2024-03-23T08:26:11;1.67;;;1.50;;
7076;SDS011;3579;48.956;9.154;2024-03-23T08:28:38;2.03;;;1.70;;
7076;SDS011;3579;48.956;9.154;2024-03-23T08:31:06;1.53;;;1.43;;
7076;SDS011;3579;48.956;9.154;2024-03-23T08:33:33;1.87;;;1.60;;
7076;SDS011;3579;48.956;9.154;2024-03-23T08:36:03;1.73;;;1.60;;
7076;SDS011;3579;48.956;9.154;2024-03-23T08:38:30;1.90;;;1.70;;
7076;SDS011;3579;48.956;9.154;2024-03-23T08:41:00;2.13;;;1.60;;
7076;SDS011;3579;48.956;9.154;2024-03-23T08:43:28;1.60;;;1.40;;
7076;SDS011;3579;48.956;9.154;2024-03-23T08:48:37;1.90;;;1.57;;
7076;SDS011;3579;48.956;9.154;2024-03-23T08:51:06;2.00;;;1.70;;
7076;SDS011;3579;48.956;9.154;2024-03-23T08:53:33;1.50;;;1.40;;
7076;SDS011;3579;48.956;9.154;2024-03-23T08:56:03;1.93;;;1.53;;
7076;SDS011;3579;48.956;9.154;2024-03-23T08:58:30;3.37;;;1.57;;
7076;SDS011;3579;48.956;9.154;2024-03-23T09:00:57;1.80;;;1.40;;
7076;SDS011;3579;48.956;9.154;2024-03-23T09:03:40;1.93;;;1.70;;
7076;SDS011;3579;48.956;9.154;2024-03-23T09:06:10;2.37;;;1.70;;
7076;SDS011;3579;48.956;9.154;2024-03-23T09:08:38;2.17;;;1.60;;
7076;SDS011;3579;48.956;9.154;2024-03-23T09:11:06;1.60;;;1.50;;
7076;SDS011;3579;48.956;9.154;2024-03-23T09:13:34;3.40;;;1.80;;
7076;SDS011;3579;48.956;9.154;2024-03-23T09:16:00;2.90;;;1.50;;
7076;SDS011;3579;48.956;9.154;2024-03-23T09:18:27;2.17;;;1.60;;
7076;SDS011;3579;48.956;9.154;2024-03-23T09:20:53;1.90;;;1.50;;
7076;SDS011;3579;48.956;9.154;2024-03-23T09:23:22;2.83;;;1.40;;
7076;SDS011;3579;48.956;9.154;2024-03-23T09:25:48;1.67;;;1.47;;
7076;SDS011;3579;48.956;9.154;2024-03-23T09:28:14;2.70;;;1.60;;
7076;SDS011;3579;48.956;9.154;2024-03-23T09:30:40;3.93;;;1.60;;
7076;SDS011;3579;48.956;9.154;2024-03-23T09:33:10;5.13;;;1.80;;
7076;SDS011;3579;48.956;9.154;2024-03-23T09:35:40;3.00;;;1.53;;
7076;SDS011;3579;48.956;9.154;2024-03-23T09:38:07;2.27;;;1.50;;
7076;SDS011;3579;48.956;9.154;2024-03-23T09:40:41;2.33;;;1.50;;
7076;SDS011;3579;48.956;9.154;2024-03-23T09:43:07;3.53;;;1.70;;
7076;SDS011;3579;48.956;9.154;2024-03-23T09:45:35;3.70;;;1.90;;
7076;SDS011;3579;48.956;9.154;2024-03-23T09:48:08;1.63;;;1.40;;
7076;SDS011;3579;48.956;9.154;2024-03-23T09:53:08;4.23;;;1.80;;
7076;SDS011;3579;48.956;9.154;2024-03-23T09:55:38;2.13;;;1.57;;
7076;SDS011;3579;48.956;9.154;2024-03-23T09:58:06;1.93;;;1.67;;
7076;SDS011;3579;48.956;9.154;2024-03-23T10:00:32;3.00;;;1.73;;
7076;SDS011;3579;48.956;9.154;2024-03-23T10:02:59;3.23;;;1.50;;
7076;SDS011;3579;48.956;9.154;2024-03-23T10:05:29;1.60;;;1.40;;
7076;SDS011;3579;48.956;9.154;2024-03-23T10:10:40;2.70;;;1.60;;
7076;SDS011;3579;48.956;9.154;2024-03-23T10:13:06;1.80;;;1.57;;
7076;SDS011;3579;48.956;9.154;2024-03-23T10:15:36;2.80;;;1.40;;
7076;SDS011;3579;48.956;9.154;2024-03-23T10:18:18;2.97;;;1.50;;
7076;SDS011;3579;48.956;9.154;2024-03-23T10:20:47;3.63;;;1.57;;
7076;SDS011;3579;48.956;9.154;2024-03-23T10:23:16;2.50;;;1.40;;
7076;SDS011;3579;48.956;9.154;2024-03-23T10:25:42;2.20;;;1.50;;
7076;SDS011;3579;48.956;9.154;2024-03-23T10:28:08;1.80;;;1.50;;
7076;SDS011;3579;48.956;9.154;2024-03-23T10:30:35;2.07;;;1.67;;
7076;SDS011;3579;48.956;9.154;2024-03-23T10:33:07;3.43;;;1.50;;
7076;SDS011;3579;48.956;9.154;2024-03-23T10:35:40;2.03;;;1.40;;
7076;SDS011;3579;48.956;9.154;2024-03-23T10:38:06;1.83;;;1.50;;
7076;SDS011;3579;48.956;9.154;2024-03-23T10:40:35;2.80;;;1.60;;
7076;SDS011;3579;48.956;9.154;2024-03-23T10:43:02;2.07;;;1.60;;
7076;SDS011;3579;48.956;9.154;2024-03-23T10:45:30;3.10;;;1.90;;
7076;SDS011;3579;48.956;9.154;2024-03-23T10:47:56;1.73;;;1.37;;
7076;SDS011;3579;48.956;9.154;2024-03-23T10:50:23;1.70;;;1.50;;
7076;SDS011;3579;48.956;9.154;2024-03-23T10:52:49;1.57;;;1.40;;
7076;SDS011;3579;48.956;9.154;2024-03-23T10:55:17;3.80;;;1.50;;
7076;SDS011;3579;48.956;9.154;2024-03-23T10:57:51;2.10;;;1.60;;
7076;SDS011;3579;48.956;9.154;2024-03-23T11:00:19;3.47;;;1.63;;
7076;SDS011;3579;48.956;9.154;2024-03-23T11:02:48;2.10;;;1.57;;
7076;SDS011;3579;48.956;9.154;2024-03-23T11:07:50;2.53;;;1.60;;
7076;SDS011;3579;48.956;9.154;2024-03-23T11:10:29;2.73;;;1.43;;
7076;SDS011;3579;48.956;9.154;2024-03-23T11:12:57;2.23;;;1.43;;
7076;SDS011;3579;48.956;9.154;2024-03-23T11:15:23;1.77;;;1.47;;
7076;SDS011;3579;48.956;9.154;2024-03-23T11:18:02;3.17;;;1.50;;
7076;SDS011;3579;48.956;9.154;2024-03-23T11:20:32;2.03;;;1.50;;
7076;SDS011;3579;48.956;9.154;2024-03-23T11:22:59;2.20;;;1.33;;
7076;SDS011;3579;48.956;9.154;2024-03-23T11:25:26;1.70;;;1.30;;
7076;SDS011;3579;48.956;9.154;2024-03-23T11:27:53;2.90;;;1.60;;
7076;SDS011;3579;48.956;9.154;2024-03-23T11:30:21;1.67;;;1.50;;
7076;SDS011;3579;48.956;9.154;2024-03-23T11:32:52;2.17;;;1.40;;
7076;SDS011;3579;48.956;9.154;2024-03-23T11:38:01;1.50;;;1.30;;
7076;SDS011;3579;48.956;9.154;2024-03-23T11:40:30;2.93;;;1.33;;
7076;SDS011;3579;48.956;9.154;2024-03-23T11:43:00;1.70;;;1.40;;
7076;SDS011;3579;48.956;9.154;2024-03-23T11:45:28;2.50;;;1.23;;
7076;SDS011;3579;48.956;9.154;2024-03-23T11:48:17;2.10;;;1.50;;
7076;SDS011;3579;48.956;9.154;2024-03-23T11:50:53;1.60;;;1.30;;
7076;SDS011;3579;48.956;9.154;2024-03-23T11:53:21;1.70;;;1.30;;
7076;SDS011;3579;48.956;9.154;2024-03-23T11:55:58;1.57;;;1.47;;
7076;SDS011;3579;48.956;9.154;2024-03-23T11:58:26;1.83;;;1.53;;
7076;SDS011;3579;48.956;9.154;2024-03-23T12:00:55;1.97;;;1.30;;
7076;SDS011;3579;48.956;9.154;2024-03-23T12:03:21;2.37;;;1.50;;
7076;SDS011;3579;48.956;9.154;2024-03-23T12:05:51;1.97;;;1.43;;
7076;SDS011;3579;48.956;9.154;2024-03-23T12:11:11;2.60;;;1.47;;
7076;SDS011;3579;48.956;9.154;2024-03-23T12:13:38;1.60;;;1.40;;
7076;SDS011;3579;48.956;9.154;2024-03-23T12:16:10;2.20;;;1.47;;
7076;SDS011;3579;48.956;9.154;2024-03-23T12:18:37;1.67;;;1.50;;
7076;SDS011;3579;48.956;9.154;2024-03-23T12:21:05;3.70;;;1.70;;
7076;SDS011;3579;48.956;9.154;2024-03-23T12:23:32;1.83;;;1.30;;
7076;SDS011;3579;48.956;9.154;2024-03-23T12:25:59;1.47;;;1.33;;
7076;SDS011;3579;48.956;9.154;2024-03-23T12:28:25;2.13;;;1.40;;
7076;SDS011;3579;48.956;9.154;2024-03-23T12:30:51;1.87;;;1.37;;
7076;SDS011;3579;48.956;9.154;2024-03-23T12:33:18;2.70;;;1.60;;
7076;SDS011;3579;48.956;9.154;2024-03-23T12:35:44;3.83;;;1.43;;
7076;SDS011;3579;48.956;9.154;2024-03-23T12:38:10;2.43;;;1.50;;
7076;SDS011;3579;48.956;9.154;2024-03-23T12:40:36;1.60;;;1.27;;
7076;SDS011;3579;48.956;9.154;2024-03-23T12:43:02;1.53;;;1.40;;
7076;SDS011;3579;48.956;9.154;2024-03-23T12:45:28;1.40;;;1.30;;
7076;SDS011;3579;48.956;9.154;2024-03-23T12:47:54;1.47;;;1.23;;
7076;SDS011;3579;48.956;9.154;2024-03-23T12:50:20;2.00;;;1.30;;
7076;SDS011;3579;48.956;9.154;2024-03-23T12:52:47;1.63;;;1.40;;
7076;SDS011;3579;48.956;9.154;2024-03-23T12:55:13;1.70;;;1.37;;
7076;SDS011;3579;48.956;9.154;2024-03-23T12:57:39;1.30;;;1.20;;
7076;SDS011;3579;48.956;9.154;2024-03-23T13:00:06;1.63;;;1.33;;
7076;SDS011;3579;48.956;9.154;2024-03-23T13:02:36;1.40;;;1.27;;
7076;SDS011;3579;48.956;9.154;2024-03-23T13:05:04;2.10;;;1.30;;
7076;SDS011;3579;48.956;9.154;2024-03-23T13:07:30;1.40;;;1.23;;
7076;SDS011;3579;48.956;9.154;2024-03-23T13:09:56;1.40;;;1.20;;
7076;SDS011;3579;48.956;9.154;2024-03-23T13:12:23;1.60;;;1.20;;
7076;SDS011;3579;48.956;9.154;2024-03-23T13:14:49;1.30;;;1.20;;
7076;SDS011;3579;48.956;9.154;2024-03-23T13:17:15;1.80;;;1.30;;
7076;SDS011;3579;48.956;9.154;2024-03-23T13:19:41;2.20;;;1.20;;
7076;SDS011;3579;48.956;9.154;2024-03-23T13:22:07;1.90;;;1.10;;
7076;SDS011;3579;48.956;9.154;2024-03-23T13:24:33;2.33;;;1.30;;
7076;SDS011;3579;48.956;9.154;2024-03-23T13:26:59;2.07;;;1.30;;
7076;SDS011;3579;48.956;9.154;2024-03-23T13:29:25;1.60;;;1.30;;
7076;SDS011;3579;48.956;9.154;2024-03-23T13:31:52;1.60;;;1.33;;
7076;SDS011;3579;48.956;9.154;2024-03-23T13:34:19;2.40;;;1.20;;
7076;SDS011;3579;48.956;9.154;2024-03-23T13:36:45;1.63;;;1.20;;
7076;SDS011;3579;48.956;9.154;2024-03-23T13:39:13;2.03;;;1.30;;
7076;SDS011;3579;48.956;9.154;2024-03-23T13:41:41;1.40;;;1.30;;
7076;SDS011;3579;48.956;9.154;2024-03-23T13:44:09;1.37;;;1.23;;
7076;SDS011;3579;48.956;9.154;2024-03-23T13:46:36;1.47;;;1.30;;
7076;SDS011;3579;48.956;9.154;2024-03-23T13:49:03;1.97;;;1.50;;
7076;SDS011;3579;48.956;9.154;2024-03-23T13:51:29;1.47;;;1.30;;
7076;SDS011;3579;48.956;9.154;2024-03-23T13:53:56;1.43;;;1.27;;
7076;SDS011;3579;48.956;9.154;2024-03-23T13:56:23;1.73;;;1.20;;
7076;SDS011;3579;48.956;9.154;2024-03-23T13:58:49;1.30;;;1.20;;
7076;SDS011;3579;48.956;9.154;2024-03-23T14:01:16;1.60;;;1.30;;
7076;SDS011;3579;48.956;9.154;2024-03-23T14:03:42;2.60;;;1.20;;
7076;SDS011;3579;48.956;9.154;2024-03-23T14:06:09;1.63;;;1.23;;
7076;SDS011;3579;48.956;9.154;2024-03-23T14:08:36;2.10;;;1.30;;
7076;SDS011;3579;48.956;9.154;2024-03-23T14:11:07;1.80;;;1.40;;
7076;SDS011;3579;48.956;9.154;2024-03-23T14:13:34;1.77;;;1.27;;
7076;SDS011;3579;48.956;9.154;2024-03-23T14:16:00;2.07;;;1.30;;
7076;SDS011;3579;48.956;9.154;2024-03-23T14:18:27;1.93;;;1.30;;
7076;SDS011;3579;48.956;9.154;2024-03-23T14:20:57;1.43;;;1.27;;
7076;SDS011;3579;48.956;9.154;2024-03-23T14:23:25;1.20;;;1.07;;
7076;SDS011;3579;48.956;9.154;2024-03-23T14:25:52;1.37;;;1.20;;
7076;SDS011;3579;48.956;9.154;2024-03-23T14:28:19;1.63;;;1.30;;
7076;SDS011;3579;48.956;9.154;2024-03-23T14:30:45;1.70;;;1.40;;
7076;SDS011;3579;48.956;9.154;2024-03-23T14:33:11;1.33;;;1.10;;
7076;SDS011;3579;48.956;9.154;2024-03-23T14:35:38;1.40;;;1.00;;
7076;SDS011;3579;48.956;9.154;2024-03-23T14:38:05;1.47;;;1.20;;
7076;SDS011;3579;48.956;9.154;2024-03-23T14:40:31;1.77;;;1.30;;
7076;SDS011;3579;48.956;9.154;2024-03-23T14:42:57;2.90;;;1.33;;
7076;SDS011;3579;48.956;9.154;2024-03-23T14:45:23;1.37;;;1.10;;
7076;SDS011;3579;48.956;9.154;2024-03-23T14:47:50;1.70;;;1.33;;
7076;SDS011;3579;48.956;9.154;2024-03-23T14:50:16;1.80;;;1.30;;
7076;SDS011;3579;48.956;9.154;2024-03-23T14:52:46;1.30;;;1.20;;
7076;SDS011;3579;48.956;9.154;2024-03-23T14:55:13;2.50;;;1.37;;
7076;SDS011;3579;48.956;9.154;2024-03-23T14:57:39;1.30;;;1.20;;
7076;SDS011;3579;48.956;9.154;2024-03-23T15:00:06;2.07;;;1.20;;
7076;SDS011;3579;48.956;9.154;2024-03-23T15:02:33;1.27;;;1.10;;
7076;SDS011;3579;48.956;9.154;2024-03-23T15:05:00;2.30;;;1.20;;
7076;SDS011;3579;48.956;9.154;2024-03-23T15:07:26;1.87;;;1.20;;
7076;SDS011;3579;48.956;9.154;2024-03-23T15:09:53;1.30;;;1.20;;
7076;SDS011;3579;48.956;9.154;2024-03-23T15:12:19;1.40;;;1.23;;
7076;SDS011;3579;48.956;9.154;2024-03-23T15:14:47;1.40;;;1.10;;
7076;SDS011;3579;48.956;9.154;2024-03-23T15:17:13;1.40;;;1.00;;
7076;SDS011;3579;48.956;9.154;2024-03-23T15:19:39;1.50;;;1.10;;
7076;SDS011;3579;48.956;9.154;2024-03-23T15:22:07;1.30;;;1.13;;
7076;SDS011;3579;48.956;9.154;2024-03-23T15:24:34;1.23;;;1.10;;
7076;SDS011;3579;48.956;9.154;2024-03-23T15:27:02;1.60;;;1.20;;
7076;SDS011;3579;48.956;9.154;2024-03-23T15:29:29;2.73;;;1.30;;
7076;SDS011;3579;48.956;9.154;2024-03-23T15:31:55;1.70;;;1.30;;
7076;SDS011;3579;48.956;9.154;2024-03-23T15:34:22;1.40;;;1.30;;
7076;SDS011;3579;48.956;9.154;2024-03-23T15:36:48;1.27;;;1.10;;
7076;SDS011;3579;48.956;9.154;2024-03-23T15:39:18;1.40;;;1.20;;
7076;SDS011;3579;48.956;9.154;2024-03-23T15:41:45;1.27;;;1.17;;
7076;SDS011;3579;48.956;9.154;2024-03-23T15:44:11;2.13;;;1.20;;
7076;SDS011;3579;48.956;9.154;2024-03-23T15:46:38;5.13;;;1.30;;
7076;SDS011;3579;48.956;9.154;2024-03-23T15:49:04;1.30;;;1.20;;
7076;SDS011;3579;48.956;9.154;2024-03-23T15:51:30;1.67;;;1.23;;
7076;SDS011;3579;48.956;9.154;2024-03-23T15:54:00;1.40;;;1.20;;
7076;SDS011;3579;48.956;9.154;2024-03-23T15:56:26;1.83;;;1.40;;
7076;SDS011;3579;48.956;9.154;2024-03-23T15:58:54;1.57;;;1.20;;
7076;SDS011;3579;48.956;9.154;2024-03-23T16:01:20;1.47;;;1.10;;
7076;SDS011;3579;48.956;9.154;2024-03-23T16:03:47;1.33;;;1.20;;
7076;SDS011;3579;48.956;9.154;2024-03-23T16:06:13;1.57;;;1.00;;
7076;SDS011;3579;48.956;9.154;2024-03-23T16:08:39;1.97;;;1.40;;
7076;SDS011;3579;48.956;9.154;2024-03-23T16:11:07;1.30;;;1.10;;
7076;SDS011;3579;48.956;9.154;2024-03-23T16:13:34;1.40;;;1.07;;
7076;SDS011;3579;48.956;9.154;2024-03-23T16:16:02;1.30;;;1.10;;
7076;SDS011;3579;48.956;9.154;2024-03-23T16:18:35;1.50;;;1.03;;
7076;SDS011;3579;48.956;9.154;2024-03-23T16:21:05;2.23;;;1.13;;